Airfield :
LOGIN :

Register | Disclaimer

   EN    FR    IT 

 










Legend :    VFR   Marginal VFR   IFR   Intensive IFR   Very Intensive IFR
Visi :
Ceiling :
>= 8 km
>= 3000ft
5 to 8 km
1000 to 3000 ft
1500m to 5 km
500 to 1000 ft
800 to 1500m
200 to 500 ft
< 800m
< 200 ft
Symbols :   Thunderstorms  Fog  Heavy snow  Heavy precipitations  Wind > 20 kt
SIGMETs :     Misc.  Thunderstorms  Icing  Turbulence  Mountain Waves  Volcanic Ashes






- Airport Elevation : 650 ft
- IATA code : ZJI


LSZL - Locarno

CURRENT METAR :
  • 290820Z 00000KT 5000 -DZ FEW015 SCT030 OVC040 05/04 Q1016 RMK WHT

EXPIRED METARs :
  • 290750Z 00000KT 5000 -DZ FEW020 SCT030 OVC040 05/04 Q1016 RMK WHT
  • 290720Z 00000KT 5000 DZ SCT020 OVC032 05/04 Q1016 RMK WHT
  • 290650Z 00000KT 6000 DZ FEW020 OVC031 05/04 Q1016 RMK WHT
  • 290620Z VRB01KT 8000 -DZ FEW027 BKN032 05/04 Q1016 RMK BLU
  • 290550Z AUTO VRB01KT 8000NDV -DZ FEW026 BKN033 05/04 Q1015 RMK

TAF AMD TAF LSZL
Valid from the 29 at 07:00 until the 29 at 15:00 UTC


290734Z 2907/2915 10003KT 9999 SCT035 BKN045
TEMPO 2906/2912 4000 -RA
PROB40
TEMPO 2906/2915 3000 DZ BKN014



MET'MAP, your aeronautical weather chart ! - Copyright ORBIFLY December 2007 - Disclaimer

ORBIFLY MET'MAP TEAM :

Programming & Development : Alexandra Zaïnal
Original concept : Baudouin d'Aumeries
Technical & hardware support : Manuel Goepfert
Assistance : Marc-Olivier Méhu




SOURCES & CREDITS :

   NOAA